Terminal Aerodrome Forecast
Issued by NWS

Home | Current Version | Previous Version | Text Only | Print | Product List | Glossary On
Versions: 1 2 3 4 5 6 7 8 9 10 11 12 13 14 15 16 17 18 19 20
000
FTUS43 KDVN 290209 AAB
TAFCID
TAF AMD
KCID 290209Z 2902/2924 13009KT 5SM -RA BR BKN030
      TEMPO 2902/2904 3SM TSRA BR BKN015CB
     FM290800 17005KT 3SM -RA BR OVC020
     FM291200 VRB03KT 2SM BR SCT007 OVC015
     FM291600 10007KT 6SM BR BKN025=

USA.gov is the U.S. government's official web portal to all federal, state and local government web resources and services.